createdAt,value
2018-08-03T00:01:06.720Z,99.90
2018-08-03T00:03:34.975Z,99.90
2018-08-03T00:06:05.400Z,99.90
2018-08-03T00:08:39.429Z,99.90
2018-08-03T00:11:18.031Z,99.90
2018-08-03T00:13:55.213Z,99.90
2018-08-03T00:16:25.838Z,99.90
2018-08-03T00:18:59.316Z,99.90
2018-08-03T00:21:33.852Z,99.90
2018-08-03T00:24:07.192Z,99.90
2018-08-03T00:26:45.376Z,99.90
2018-08-03T00:29:29.452Z,99.90
2018-08-03T00:31:58.252Z,99.90
2018-08-03T00:34:30.857Z,99.90
2018-08-03T00:37:04.686Z,99.90
2018-08-03T00:39:37.907Z,99.90
2018-08-03T00:42:12.847Z,99.90
2018-08-03T00:44:41.172Z,99.90
2018-08-03T00:47:09.600Z,99.90
2018-08-03T00:49:47.596Z,99.90
2018-08-03T00:52:23.712Z,99.90
2018-08-03T00:55:00.430Z,99.90
2018-08-03T01:00:16.275Z,99.90
2018-08-03T01:02:48.762Z,99.90
2018-08-03T01:05:31.431Z,99.90
2018-08-03T01:08:12.965Z,99.90
2018-08-03T01:10:41.409Z,99.90
2018-08-03T01:13:10.009Z,99.90
2018-08-03T01:15:38.625Z,99.90
2018-08-03T01:18:07.068Z,99.90
2018-08-03T01:20:35.545Z,99.90
2018-08-03T01:23:03.744Z,99.90
2018-08-03T01:25:39.379Z,99.90
2018-08-03T01:28:07.598Z,99.90
2018-08-03T01:30:38.882Z,99.90
2018-08-03T01:33:13.478Z,99.90
2018-08-03T01:35:46.978Z,99.90
2018-08-03T01:38:17.672Z,99.90
2018-08-03T01:40:46.211Z,99.90
2018-08-03T01:43:14.526Z,99.90
2018-08-03T01:45:49.093Z,99.90
2018-08-03T01:48:20.210Z,99.90
2018-08-03T01:50:55.903Z,99.90
2018-08-03T01:53:30.075Z,99.90
2018-08-03T01:56:06.133Z,99.90
2018-08-03T01:58:34.967Z,99.90
2018-08-03T02:01:15.174Z,99.90
2018-08-03T02:03:46.612Z,99.90
2018-08-03T02:06:17.037Z,99.90
2018-08-03T02:08:48.453Z,99.90
2018-08-03T02:11:16.937Z,99.90
2018-08-03T02:13:45.525Z,99.90
2018-08-03T02:16:16.260Z,99.90
2018-08-03T02:18:48.010Z,99.90
2018-08-03T02:21:30.877Z,99.90
2018-08-03T02:24:01.556Z,99.90
2018-08-03T02:26:33.907Z,99.90
2018-08-03T02:29:06.218Z,99.90
2018-08-03T02:31:36.980Z,99.90
2018-08-03T02:34:11.561Z,99.90
2018-08-03T02:36:46.967Z,99.90
2018-08-03T02:41:55.225Z,99.90
2018-08-03T02:44:23.775Z,99.90
2018-08-03T02:46:52.233Z,99.90
2018-08-03T02:49:20.714Z,99.90
2018-08-03T02:51:49.291Z,99.90
2018-08-03T02:56:55.241Z,99.90
2018-08-03T02:59:26.329Z,99.90
2018-08-03T03:01:57.562Z,99.90
2018-08-03T03:04:31.268Z,99.90
2018-08-03T03:07:02.450Z,99.90
2018-08-03T03:09:35.865Z,99.90
2018-08-03T03:12:09.934Z,99.90
2018-08-03T03:14:38.502Z,99.90
2018-08-03T03:17:06.751Z,99.90
2018-08-03T03:19:40.330Z,99.90
2018-08-03T03:22:08.841Z,99.90
2018-08-03T03:24:37.273Z,99.90
2018-08-03T03:27:05.620Z,99.90
2018-08-03T03:29:40.484Z,99.90
2018-08-03T03:32:09.037Z,99.90
2018-08-03T03:34:40.929Z,99.90
2018-08-03T03:37:12.430Z,99.90
2018-08-03T03:39:51.448Z,99.90
2018-08-03T03:42:30.095Z,99.90
2018-08-03T03:45:03.825Z,99.90
2018-08-03T03:47:36.451Z,99.90
2018-08-03T03:50:10.102Z,99.90
2018-08-03T03:52:39.025Z,99.90
2018-08-03T03:55:10.311Z,99.90
2018-08-03T03:57:46.486Z,99.90
2018-08-03T04:00:17.659Z,99.90
2018-08-03T04:02:46.331Z,99.90
2018-08-03T04:05:18.274Z,99.90
2018-08-03T04:10:27.013Z,99.90
2018-08-03T04:13:00.484Z,99.90
2018-08-03T04:15:40.580Z,99.90
2018-08-03T04:18:14.738Z,99.90
2018-08-03T04:20:43.133Z,99.90
2018-08-03T04:23:23.094Z,99.90
2018-08-03T04:25:59.369Z,99.90
2018-08-03T04:28:28.520Z,99.90
2018-08-03T04:31:00.909Z,99.90
2018-08-03T04:33:34.418Z,99.90
2018-08-03T04:36:07.729Z,99.90
2018-08-03T04:38:42.210Z,99.90
2018-08-03T04:41:18.696Z,99.90
2018-08-03T04:43:53.325Z,99.90
2018-08-03T04:46:21.994Z,99.90
2018-08-03T04:48:51.087Z,99.90
2018-08-03T04:51:26.561Z,99.90
2018-08-03T04:53:59.643Z,99.90
2018-08-03T04:56:41.655Z,99.90
2018-08-03T04:59:10.864Z,99.90
2018-08-03T05:01:48.456Z,99.90
2018-08-03T05:04:27.160Z,99.90
2018-08-03T05:06:57.478Z,99.90
2018-08-03T05:09:25.776Z,99.90
2018-08-03T05:11:57.671Z,99.90
2018-08-03T05:14:28.245Z,99.90
2018-08-03T05:17:01.227Z,99.90
2018-08-03T05:19:29.492Z,99.90
2018-08-03T05:22:04.148Z,99.90
2018-08-03T05:24:32.396Z,99.90
2018-08-03T05:27:07.766Z,99.90
2018-08-03T05:29:42.348Z,99.90
2018-08-03T05:32:11.430Z,99.90
2018-08-03T05:34:47.032Z,99.90
2018-08-03T05:37:18.982Z,99.90
2018-08-03T05:39:47.358Z,99.90
2018-08-03T05:42:15.621Z,99.90
2018-08-03T05:44:47.906Z,99.90
2018-08-03T05:47:30.273Z,99.90
2018-08-03T05:50:07.438Z,99.90
2018-08-03T05:52:37.886Z,99.90
2018-08-03T05:55:07.023Z,99.90
2018-08-03T05:57:43.609Z,99.90
2018-08-03T06:00:11.946Z,99.90
2018-08-03T06:05:25.824Z,99.90
2018-08-03T06:07:54.224Z,99.90
2018-08-03T06:10:23.516Z,99.90
2018-08-03T06:12:55.980Z,99.90
2018-08-03T06:15:31.146Z,99.90
2018-08-03T06:18:02.681Z,99.90
2018-08-03T06:20:46.478Z,99.90
2018-08-03T06:23:15.151Z,99.90
2018-08-03T06:25:43.360Z,99.90
2018-08-03T06:28:20.168Z,99.90
2018-08-03T06:30:48.400Z,99.90
2018-08-03T06:33:19.487Z,99.90
2018-08-03T06:35:53.997Z,99.90
2018-08-03T06:38:34.289Z,99.90
2018-08-03T06:41:12.577Z,99.90
2018-08-03T06:43:43.882Z,99.90
2018-08-03T06:46:12.084Z,99.90
2018-08-03T06:48:44.370Z,99.90
2018-08-03T06:51:17.561Z,99.90
2018-08-03T06:53:56.946Z,99.90
2018-08-03T06:56:29.476Z,99.90
2018-08-03T06:59:00.789Z,99.90
2018-08-03T07:01:37.407Z,99.90
2018-08-03T07:04:11.043Z,99.90
2018-08-03T07:06:46.024Z,99.60
2018-08-03T07:09:24.670Z,99.10
2018-08-03T07:11:58.289Z,98.80
2018-08-03T07:14:32.959Z,98.40
2018-08-03T07:17:06.422Z,98.00
2018-08-03T07:19:35.266Z,98.20
2018-08-03T07:22:16.207Z,97.90
2018-08-03T07:24:48.594Z,97.40
2018-08-03T07:27:21.394Z,97.20
2018-08-03T07:29:49.656Z,96.50
2018-08-03T07:32:26.307Z,96.00
2018-08-03T07:35:02.645Z,95.50
2018-08-03T07:37:30.879Z,95.10
2018-08-03T07:40:03.977Z,94.80
2018-08-03T07:42:44.314Z,94.50
2018-08-03T07:45:20.531Z,94.30
2018-08-03T07:47:49.019Z,93.80
2018-08-03T07:50:31.385Z,92.80
2018-08-03T07:53:04.956Z,92.60
2018-08-03T07:58:10.807Z,91.30
2018-08-03T08:00:39.192Z,90.40
2018-08-03T08:03:07.506Z,90.20
2018-08-03T08:05:36.490Z,89.30
2018-08-03T08:08:09.777Z,87.90
2018-08-03T08:10:38.324Z,86.30
2018-08-03T08:16:00.353Z,84.30
2018-08-03T08:18:35.866Z,82.80
2018-08-03T08:21:13.640Z,81.90
2018-08-03T08:23:56.037Z,81.80
2018-08-03T08:26:24.925Z,81.30
2018-08-03T08:29:00.898Z,81.60
2018-08-03T08:31:32.249Z,79.40
2018-08-03T08:34:04.826Z,79.30
2018-08-03T08:36:37.893Z,78.90
2018-08-03T08:39:12.418Z,78.00
2018-08-03T08:41:46.975Z,77.50
2018-08-03T08:44:16.022Z,77.40
2018-08-03T08:46:57.657Z,76.20
2018-08-03T08:49:33.307Z,75.60
2018-08-03T08:52:09.636Z,75.10
2018-08-03T08:54:38.095Z,74.70
2018-08-03T08:57:10.752Z,73.50
2018-08-03T08:59:39.616Z,72.70
2018-08-03T09:02:09.812Z,72.00
2018-08-03T09:04:38.067Z,71.40
2018-08-03T09:07:08.801Z,71.20
2018-08-03T09:09:37.087Z,70.40
2018-08-03T09:12:11.923Z,69.20
2018-08-03T09:14:47.068Z,68.90
2018-08-03T09:17:15.797Z,68.40
2018-08-03T09:19:44.018Z,68.60
2018-08-03T09:22:13.609Z,67.80
2018-08-03T09:24:46.564Z,67.50
2018-08-03T09:27:17.761Z,65.90
2018-08-03T09:29:56.719Z,64.20
2018-08-03T09:35:00.915Z,62.40
2018-08-03T09:37:29.154Z,62.30
2018-08-03T09:40:04.737Z,62.60
2018-08-03T09:42:33.010Z,61.40
2018-08-03T09:45:06.066Z,60.60
2018-08-03T09:47:42.141Z,60.20
2018-08-03T09:50:10.462Z,58.90
2018-08-03T09:52:47.158Z,58.70
2018-08-03T09:55:23.839Z,58.00
2018-08-03T09:58:03.953Z,57.10
2018-08-03T10:00:37.693Z,57.90
2018-08-03T10:03:08.168Z,58.10
2018-08-03T10:05:39.372Z,58.70
2018-08-03T10:08:07.586Z,57.60
2018-08-03T10:10:42.535Z,56.60
2018-08-03T10:13:16.444Z,55.80
2018-08-03T10:15:51.172Z,55.60
2018-08-03T10:18:20.276Z,55.20
2018-08-03T10:20:56.417Z,55.10
2018-08-03T10:23:37.073Z,54.90
2018-08-03T10:26:10.357Z,54.80
2018-08-03T10:28:42.437Z,54.70
2018-08-03T10:31:10.697Z,54.90
2018-08-03T10:33:44.719Z,54.40
2018-08-03T10:36:26.958Z,54.10
2018-08-03T10:38:59.309Z,53.60
2018-08-03T10:41:27.664Z,53.40
2018-08-03T10:44:01.409Z,53.40
2018-08-03T10:46:31.720Z,52.70
2018-08-03T10:49:04.807Z,52.70
2018-08-03T10:51:38.183Z,52.60
2018-08-03T10:54:09.559Z,52.30
2018-08-03T10:56:47.542Z,52.50
2018-08-03T10:59:29.257Z,52.20
2018-08-03T11:02:01.785Z,51.50
2018-08-03T11:04:38.035Z,51.60
2018-08-03T11:07:18.435Z,51.10
2018-08-03T11:09:52.239Z,50.80
2018-08-03T11:12:22.875Z,50.40
2018-08-03T11:17:30.661Z,50.10
2018-08-03T11:20:02.176Z,50.20
2018-08-03T11:22:30.528Z,49.70
2018-08-03T11:25:05.330Z,49.40
2018-08-03T11:27:48.677Z,49.30
2018-08-03T11:30:24.732Z,49.90
2018-08-03T11:32:56.179Z,49.70
2018-08-03T11:35:31.234Z,49.70
2018-08-03T11:37:59.461Z,49.80
2018-08-03T11:40:28.076Z,49.30
2018-08-03T11:43:00.439Z,49.60
2018-08-03T11:45:28.686Z,49.60
2018-08-03T11:47:57.685Z,49.30
2018-08-03T11:50:32.295Z,49.50
2018-08-03T11:53:12.599Z,49.60
2018-08-03T11:55:49.202Z,49.20
2018-08-03T11:58:25.132Z,49.30
2018-08-03T12:03:25.624Z,49.50
2018-08-03T12:06:00.714Z,49.30
2018-08-03T12:08:31.227Z,49.00
2018-08-03T12:10:59.713Z,48.70
2018-08-03T12:13:31.069Z,48.70
2018-08-03T12:15:59.523Z,48.70
2018-08-03T12:18:27.714Z,48.40
2018-08-03T12:20:58.747Z,48.40
2018-08-03T12:23:30.028Z,48.50
2018-08-03T12:25:58.362Z,48.50
2018-08-03T12:28:30.378Z,48.80
2018-08-03T12:31:03.696Z,48.70
2018-08-03T12:36:02.337Z,48.50
2018-08-03T12:38:31.136Z,47.60
2018-08-03T12:41:05.135Z,47.10
2018-08-03T12:43:33.449Z,47.10
2018-08-03T12:46:07.945Z,47.10
2018-08-03T12:48:40.932Z,46.70
2018-08-03T12:51:12.337Z,46.50
2018-08-03T12:53:40.627Z,46.50
2018-08-03T12:56:13.745Z,46.30
2018-08-03T12:58:47.237Z,46.70
2018-08-03T13:01:16.107Z,46.30
2018-08-03T13:03:56.355Z,46.70
2018-08-03T13:06:24.568Z,47.00
2018-08-03T13:09:00.094Z,46.30
2018-08-03T13:11:30.737Z,46.10
2018-08-03T13:13:59.163Z,46.10
2018-08-03T13:16:36.414Z,45.90
2018-08-03T13:19:11.097Z,45.20
2018-08-03T13:21:47.475Z,45.50
2018-08-03T13:24:15.785Z,45.80
2018-08-03T13:26:48.716Z,45.60
2018-08-03T13:29:26.141Z,45.40
2018-08-03T13:31:54.321Z,45.10
2018-08-03T13:34:22.597Z,46.00
2018-08-03T13:36:57.097Z,45.20
2018-08-03T13:39:31.811Z,45.40
2018-08-03T13:41:59.984Z,45.30
2018-08-03T13:44:34.762Z,45.30
2018-08-03T13:47:03.061Z,45.20
2018-08-03T13:49:35.504Z,45.30
2018-08-03T13:52:04.001Z,45.60
2018-08-03T13:54:36.585Z,46.00
2018-08-03T13:57:07.689Z,46.00
2018-08-03T13:59:40.241Z,46.00
2018-08-03T14:02:26.255Z,46.60
2018-08-03T14:05:04.939Z,47.00
2018-08-03T14:07:41.045Z,46.20
2018-08-03T14:10:12.376Z,45.80
2018-08-03T14:12:40.875Z,45.70
2018-08-03T14:15:13.335Z,45.20
2018-08-03T14:17:43.676Z,45.20
2018-08-03T14:20:11.921Z,45.30
2018-08-03T14:25:19.122Z,44.70
2018-08-03T14:27:47.343Z,46.50
2018-08-03T14:30:17.825Z,45.90
2018-08-03T14:32:46.232Z,46.00
2018-08-03T14:35:26.059Z,45.60
2018-08-03T14:37:54.510Z,45.60
2018-08-03T14:40:22.742Z,45.60
2018-08-03T14:42:56.672Z,45.70
2018-08-03T14:45:27.989Z,45.80
2018-08-03T14:47:56.363Z,45.80
2018-08-03T14:50:28.126Z,45.90
2018-08-03T14:53:06.605Z,46.30
2018-08-03T14:55:48.833Z,46.60
2018-08-03T14:58:19.255Z,46.50
2018-08-03T15:00:47.602Z,46.50
2018-08-03T15:03:26.411Z,47.30
2018-08-03T15:05:57.818Z,46.80
2018-08-03T15:08:31.427Z,46.30
2018-08-03T15:11:02.437Z,46.10
2018-08-03T15:13:30.618Z,46.50
2018-08-03T15:16:04.200Z,45.90
2018-08-03T15:18:32.390Z,46.30
2018-08-03T15:21:08.642Z,46.60
2018-08-03T15:23:50.909Z,47.30
2018-08-03T15:26:21.509Z,46.60
2018-08-03T15:28:56.330Z,46.70
2018-08-03T15:31:24.837Z,46.90
2018-08-03T15:33:59.390Z,47.00
2018-08-03T15:36:28.332Z,46.70
2018-08-03T15:38:59.758Z,46.70
2018-08-03T15:41:39.511Z,46.60
2018-08-03T15:44:16.232Z,46.60
2018-08-03T15:46:44.477Z,46.70
2018-08-03T15:49:14.174Z,46.70
2018-08-03T15:51:42.664Z,47.00
2018-08-03T15:54:10.916Z,47.20
2018-08-03T15:56:46.430Z,48.00
2018-08-03T15:59:18.840Z,47.80
2018-08-03T16:01:50.702Z,47.90
2018-08-03T16:04:19.144Z,47.40
2018-08-03T16:06:47.506Z,46.80
2018-08-03T16:09:29.894Z,46.60
2018-08-03T16:11:58.179Z,47.40
2018-08-03T16:14:32.824Z,47.70
2018-08-03T16:17:01.070Z,47.30
2018-08-03T16:19:35.542Z,47.20
2018-08-03T16:22:10.716Z,47.70
2018-08-03T16:24:44.140Z,47.80
2018-08-03T16:27:21.289Z,47.40
2018-08-03T16:29:58.364Z,47.20
2018-08-03T16:32:30.864Z,47.20
2018-08-03T16:34:59.247Z,47.40
2018-08-03T16:37:30.344Z,47.10
2018-08-03T16:40:04.681Z,47.10
2018-08-03T16:42:45.552Z,47.40
2018-08-03T16:45:20.243Z,47.50
2018-08-03T16:47:58.494Z,48.10
2018-08-03T16:50:31.710Z,48.10
2018-08-03T16:53:10.451Z,48.40
2018-08-03T16:55:38.789Z,48.80
2018-08-03T16:58:12.236Z,48.70
2018-08-03T17:00:43.985Z,48.60
2018-08-03T17:03:12.708Z,48.80
2018-08-03T17:05:48.726Z,49.10
2018-08-03T17:08:26.106Z,49.40
2018-08-03T17:10:54.368Z,49.70
2018-08-03T17:13:26.661Z,49.90
2018-08-03T17:15:57.748Z,50.20
2018-08-03T17:18:28.574Z,50.20
2018-08-03T17:21:00.928Z,50.20
2018-08-03T17:23:33.401Z,50.20
2018-08-03T17:26:15.455Z,50.00
2018-08-03T17:28:44.005Z,50.30
2018-08-03T17:31:12.397Z,50.50
2018-08-03T17:36:19.425Z,50.70
2018-08-03T17:39:01.969Z,50.90
2018-08-03T17:41:40.380Z,51.10
2018-08-03T17:44:21.499Z,51.70
2018-08-03T17:46:53.802Z,50.80
2018-08-03T17:49:23.060Z,51.50
2018-08-03T17:51:58.277Z,51.70
2018-08-03T17:54:28.561Z,51.80
2018-08-03T17:57:05.497Z,52.20
2018-08-03T17:59:38.725Z,52.50
2018-08-03T18:02:11.148Z,54.90
2018-08-03T18:04:44.485Z,56.40
2018-08-03T18:07:14.841Z,57.70
2018-08-03T18:09:47.491Z,59.30
2018-08-03T18:12:24.497Z,60.20
2018-08-03T18:14:53.336Z,61.50
2018-08-03T18:17:28.037Z,62.30
2018-08-03T18:20:02.706Z,63.10
2018-08-03T18:22:30.994Z,63.70
2018-08-03T18:25:02.181Z,64.50
2018-08-03T18:27:35.591Z,64.90
2018-08-03T18:30:18.638Z,65.10
2018-08-03T18:32:47.196Z,65.50
2018-08-03T18:35:15.614Z,65.70
2018-08-03T18:37:50.750Z,66.40
2018-08-03T18:40:19.258Z,66.80
2018-08-03T18:42:56.288Z,67.20
2018-08-03T18:45:27.752Z,67.80
2018-08-03T18:48:08.420Z,68.30
2018-08-03T18:50:41.904Z,68.70
2018-08-03T18:53:16.631Z,68.90
2018-08-03T18:55:53.482Z,69.20
2018-08-03T18:58:28.065Z,69.80
2018-08-03T19:01:01.302Z,70.20
2018-08-03T19:03:29.617Z,70.70
2018-08-03T19:05:57.974Z,71.10
2018-08-03T19:08:26.305Z,71.90
2018-08-03T19:10:59.234Z,72.10
2018-08-03T19:13:29.564Z,72.80
2018-08-03T19:15:57.859Z,73.20
2018-08-03T19:18:29.381Z,73.70
2018-08-03T19:20:57.590Z,74.10
2018-08-03T19:23:28.735Z,75.30
2018-08-03T19:26:02.462Z,74.90
2018-08-03T19:28:37.721Z,75.30
2018-08-03T19:31:11.504Z,75.60
2018-08-03T19:33:39.831Z,76.40
2018-08-03T19:36:10.974Z,77.20
2018-08-03T19:38:53.079Z,77.60
2018-08-03T19:41:21.849Z,78.70
2018-08-03T19:44:01.194Z,78.30
2018-08-03T19:46:32.083Z,79.40
2018-08-03T19:49:07.895Z,78.90
2018-08-03T19:51:36.136Z,79.30
2018-08-03T19:54:08.513Z,79.60
2018-08-03T19:56:44.026Z,80.00
2018-08-03T19:59:12.384Z,80.20
2018-08-03T20:01:46.925Z,80.90
2018-08-03T20:04:24.517Z,81.00
2018-08-03T20:06:52.898Z,81.50
2018-08-03T20:09:24.010Z,81.90
2018-08-03T20:11:58.918Z,82.10
2018-08-03T20:14:27.135Z,82.40
2018-08-03T20:17:00.707Z,82.10
2018-08-03T20:19:31.848Z,83.00
2018-08-03T20:22:14.928Z,83.30
2018-08-03T20:24:45.426Z,83.70
2018-08-03T20:27:18.679Z,84.00
2018-08-03T20:29:51.893Z,84.20
2018-08-03T20:32:24.464Z,84.40
2018-08-03T20:34:52.966Z,84.60
2018-08-03T20:37:25.258Z,84.70
2018-08-03T20:40:00.275Z,84.90
2018-08-03T20:42:36.924Z,85.10
2018-08-03T20:45:07.675Z,85.20
2018-08-03T20:47:48.207Z,85.40
2018-08-03T20:50:17.346Z,85.60
2018-08-03T20:52:52.798Z,85.70
2018-08-03T20:55:29.746Z,86.10
2018-08-03T20:57:58.085Z,86.20
2018-08-03T21:00:26.277Z,86.60
2018-08-03T21:02:59.680Z,86.90
2018-08-03T21:05:37.354Z,86.90
2018-08-03T21:08:06.185Z,87.10
2018-08-03T21:10:36.694Z,87.20
2018-08-03T21:13:07.120Z,87.40
2018-08-03T21:15:41.791Z,87.70
2018-08-03T21:18:12.912Z,87.80
2018-08-03T21:20:41.247Z,87.90
2018-08-03T21:23:12.809Z,88.30
2018-08-03T21:25:41.216Z,89.10
2018-08-03T21:28:09.442Z,89.00
2018-08-03T21:30:49.245Z,89.30
2018-08-03T21:33:17.570Z,89.80
2018-08-03T21:35:55.596Z,90.10
2018-08-03T21:38:30.848Z,90.40
2018-08-03T21:41:10.718Z,90.60
2018-08-03T21:43:39.043Z,90.80
2018-08-03T21:46:13.923Z,91.00
2018-08-03T21:48:46.076Z,91.20
2018-08-03T21:51:19.451Z,91.50
2018-08-03T21:53:57.198Z,91.70
2018-08-03T21:56:29.896Z,91.80
2018-08-03T21:58:58.526Z,92.00
2018-08-03T22:01:32.942Z,92.30
2018-08-03T22:04:05.683Z,92.50
2018-08-03T22:06:40.356Z,92.70
2018-08-03T22:09:09.377Z,93.10
2018-08-03T22:11:40.919Z,93.40
2018-08-03T22:14:22.471Z,93.60
2018-08-03T22:16:57.240Z,93.90
2018-08-03T22:19:25.714Z,94.10
2018-08-03T22:22:04.953Z,94.50
2018-08-03T22:24:36.137Z,94.90
2018-08-03T22:27:16.080Z,95.10
2018-08-03T22:29:44.362Z,95.70
2018-08-03T22:32:12.681Z,95.60
2018-08-03T22:34:44.049Z,95.80
2018-08-03T22:37:21.100Z,96.10
2018-08-03T22:39:54.859Z,96.40
2018-08-03T22:42:32.030Z,96.50
2018-08-03T22:45:03.330Z,96.60
2018-08-03T22:47:31.663Z,96.70
2018-08-03T22:50:00.090Z,96.90
2018-08-03T22:52:33.469Z,96.70
2018-08-03T22:55:06.194Z,97.00
2018-08-03T22:57:34.445Z,96.80
2018-08-03T23:00:06.435Z,96.80
2018-08-03T23:02:38.027Z,96.80
2018-08-03T23:05:11.436Z,97.10
2018-08-03T23:10:14.818Z,97.50
2018-08-03T23:12:45.825Z,97.60
2018-08-03T23:15:24.145Z,97.70
2018-08-03T23:17:58.360Z,97.80
2018-08-03T23:20:37.159Z,97.90
2018-08-03T23:23:12.133Z,98.10
2018-08-03T23:25:44.416Z,98.20
2018-08-03T23:28:20.034Z,98.30
2018-08-03T23:30:48.372Z,98.40
2018-08-03T23:33:21.109Z,98.30
2018-08-03T23:35:54.062Z,98.50
2018-08-03T23:38:25.287Z,98.40
2018-08-03T23:41:00.039Z,98.40
2018-08-03T23:43:33.142Z,98.40
2018-08-03T23:46:11.757Z,98.40
2018-08-03T23:48:42.855Z,98.40
2018-08-03T23:51:11.288Z,98.40
2018-08-03T23:53:49.787Z,98.40
2018-08-03T23:56:24.494Z,98.40
2018-08-03T23:58:59.323Z,98.50
